createdAt,value
2023-02-06T06:14:05.053Z,32.00
2023-02-06T06:16:35.445Z,32.00
2023-02-06T06:19:04.972Z,32.00
2023-02-06T06:21:35.563Z,32.00
2023-02-06T06:24:05.510Z,32.00
2023-02-06T06:26:35.675Z,32.00
2023-02-06T06:29:07.059Z,31.90
2023-02-06T06:31:36.908Z,31.80
2023-02-06T06:34:06.479Z,31.80
2023-02-06T06:36:36.535Z,31.80
2023-02-06T06:39:06.419Z,31.80
2023-02-06T06:41:36.053Z,31.80
2023-02-06T06:44:07.110Z,31.80
2023-02-06T06:46:39.713Z,31.70
2023-02-06T06:49:09.777Z,31.70
2023-02-06T06:51:39.911Z,31.60
2023-02-06T06:54:09.457Z,31.60
2023-02-06T06:56:38.833Z,31.50
2023-02-06T06:59:08.637Z,31.60
2023-02-06T07:01:38.000Z,31.70
2023-02-06T07:04:07.370Z,31.70
2023-02-06T07:06:36.768Z,31.70
2023-02-06T07:09:06.112Z,31.70
2023-02-06T07:42:37.911Z,30.40
2023-02-06T07:45:07.432Z,30.40
2023-02-06T07:47:36.779Z,30.40
2023-02-06T07:50:06.363Z,30.30
2023-02-06T07:52:35.768Z,30.20
2023-02-06T07:55:06.666Z,30.20
2023-02-06T07:57:36.060Z,30.20
2023-02-06T08:00:06.758Z,30.00
2023-02-06T08:02:36.131Z,30.00
2023-02-06T08:05:06.048Z,29.90
2023-02-06T08:07:36.703Z,29.80
2023-02-06T08:10:08.651Z,29.70
2023-02-06T08:12:39.223Z,29.70
2023-02-06T08:15:08.746Z,29.60
2023-02-06T08:17:38.248Z,29.50
2023-02-06T08:20:07.735Z,29.40
2023-02-06T08:22:38.102Z,29.20
2023-02-06T08:25:07.768Z,29.20
2023-02-06T08:27:37.163Z,28.90
2023-02-06T08:30:06.750Z,28.70
2023-02-06T08:32:38.128Z,28.50
2023-02-06T08:35:07.989Z,28.40
2023-02-06T08:37:37.430Z,28.20
2023-02-06T08:40:08.057Z,28.10
2023-02-06T09:28:26.381Z,25.50
2023-02-06T09:30:55.907Z,25.40
2023-02-06T09:33:25.399Z,25.20
2023-02-06T09:36:11.141Z,25.10
2023-02-06T09:38:47.164Z,25.00
2023-02-06T09:41:26.321Z,24.80
2023-02-06T09:44:01.805Z,24.70
2023-02-06T09:46:33.261Z,24.70
2023-02-06T09:49:04.225Z,24.60
2023-02-06T09:51:41.778Z,24.50
2023-02-06T09:54:23.612Z,24.40
2023-02-06T09:56:59.364Z,24.30
2023-02-06T09:59:46.869Z,24.20
2023-02-06T10:02:29.579Z,24.10
2023-02-06T10:05:00.162Z,24.00
2023-02-06T10:07:57.312Z,24.00
2023-02-06T10:10:43.579Z,23.80
2023-02-06T10:13:16.826Z,23.80
2023-02-06T10:15:48.301Z,23.70
2023-02-06T10:18:18.151Z,23.70
2023-02-06T10:20:53.078Z,23.70
2023-02-06T10:23:38.778Z,23.60
2023-02-06T10:26:08.091Z,23.50
2023-02-06T17:17:04.334Z,19.90
2023-02-06T17:19:34.840Z,19.90
2023-02-06T17:22:04.199Z,19.80
2023-02-06T17:24:33.585Z,19.80
2023-02-06T17:27:03.116Z,19.80
2023-02-06T17:29:36.774Z,19.80
2023-02-06T17:32:08.730Z,19.80
2023-02-06T17:34:39.081Z,19.80
2023-02-06T17:37:09.633Z,19.80
2023-02-06T17:39:39.029Z,19.80
2023-02-06T17:42:08.383Z,19.80
2023-02-06T17:44:37.721Z,19.80
2023-02-06T17:47:07.202Z,19.80
2023-02-06T17:49:36.568Z,19.80
2023-02-06T17:52:06.007Z,19.80
2023-02-06T17:54:35.860Z,19.70
2023-02-06T17:57:06.329Z,19.70
2023-02-06T17:59:35.661Z,19.80
2023-02-06T18:02:05.027Z,19.70
2023-02-06T18:04:34.820Z,19.70
2023-02-06T18:07:04.187Z,19.70
2023-02-06T18:09:33.612Z,19.70
2023-02-06T18:12:02.932Z,19.70
2023-02-06T18:14:33.503Z,19.60
2023-02-06T18:17:05.211Z,19.70
2023-02-06T18:19:42.892Z,19.70
2023-02-06T18:22:13.161Z,19.70
2023-02-06T18:24:43.034Z,19.60
2023-02-06T18:27:12.569Z,19.70
2023-02-06T18:29:49.776Z,19.60
2023-02-06T18:32:21.242Z,19.60
2023-02-06T18:34:50.687Z,19.50
2023-02-06T18:37:20.081Z,19.60
2023-02-06T18:39:49.430Z,19.50
2023-02-06T18:42:37.038Z,19.50
2023-02-06T18:45:06.480Z,19.50
2023-02-06T18:47:35.845Z,19.50
2023-02-06T18:50:05.200Z,19.60
2023-02-06T18:52:34.550Z,19.60
2023-02-06T18:55:03.956Z,19.50
2023-02-06T18:57:33.399Z,19.50
2023-02-06T19:00:02.782Z,19.50
2023-02-06T19:02:32.337Z,19.50
2023-02-06T19:05:02.264Z,19.40
2023-02-06T19:07:31.647Z,19.40
2023-02-06T19:10:01.623Z,19.50
2023-02-06T19:12:31.284Z,19.50
2023-02-06T19:15:01.374Z,19.40
2023-02-06T19:17:30.733Z,19.40
2023-02-06T19:20:00.111Z,19.40
2023-02-06T19:22:29.547Z,19.40
2023-02-06T19:24:58.972Z,19.50
2023-02-06T19:27:28.325Z,19.40
2023-02-06T19:29:57.704Z,19.40
2023-02-06T19:32:30.331Z,19.40
2023-02-06T19:34:59.693Z,19.30
2023-02-06T19:37:29.042Z,19.40
2023-02-06T19:39:58.527Z,19.40
2023-02-06T19:42:27.891Z,19.30
2023-02-06T19:44:57.288Z,19.30
2023-02-06T19:47:27.736Z,19.30
2023-02-06T19:49:58.583Z,19.30
2023-02-06T19:52:30.548Z,19.30
2023-02-06T19:55:00.917Z,19.30
2023-02-06T19:57:30.271Z,19.30
2023-02-06T19:59:59.675Z,19.30
2023-02-06T20:02:31.818Z,19.30
2023-02-06T20:05:02.664Z,19.30
2023-02-06T20:07:32.743Z,19.30
2023-02-06T20:10:02.123Z,19.30
2023-02-06T20:12:31.862Z,19.30
2023-02-06T20:15:01.899Z,19.40
2023-02-06T20:17:31.674Z,19.40
2023-02-06T20:20:01.559Z,19.40
2023-02-06T20:22:31.336Z,19.40
2023-02-06T20:25:04.188Z,19.40
2023-02-06T20:27:33.708Z,19.50
2023-02-06T20:30:03.034Z,19.50
2023-02-06T20:32:32.424Z,19.50
2023-02-06T20:35:01.820Z,19.40
2023-02-06T20:37:31.599Z,19.40
2023-02-06T20:40:02.405Z,19.40
2023-02-06T20:42:33.550Z,19.40
2023-02-06T20:45:04.026Z,19.50
2023-02-06T20:47:33.803Z,19.50
2023-02-06T20:50:03.462Z,19.40
2023-02-06T20:52:33.220Z,19.50
2023-02-06T20:55:02.692Z,19.60
2023-02-06T20:57:35.198Z,19.50
2023-02-06T21:00:07.962Z,19.50
2023-02-06T21:02:37.620Z,19.60
2023-02-06T21:05:08.824Z,19.70
2023-02-06T21:07:40.922Z,19.70
2023-02-06T21:10:10.413Z,19.70
2023-02-06T21:12:39.794Z,19.70
2023-02-06T21:15:09.354Z,19.80
2023-02-06T21:17:38.747Z,19.80
2023-02-06T21:20:08.496Z,19.80
2023-02-06T21:22:37.939Z,19.90
2023-02-06T21:25:07.468Z,20.00
2023-02-06T21:27:36.956Z,20.10
2023-02-06T21:30:07.440Z,20.20
2023-02-06T21:32:36.843Z,20.20
2023-02-06T21:35:06.285Z,20.30
2023-02-06T21:37:35.620Z,20.30
2023-02-06T21:40:06.058Z,20.30
2023-02-06T21:42:36.480Z,20.40
2023-02-06T21:45:07.316Z,20.40
2023-02-06T21:47:36.887Z,20.50
2023-02-06T21:50:06.424Z,20.50
2023-02-06T21:52:39.701Z,20.60
2023-02-06T21:55:10.224Z,20.50
2023-02-06T21:57:39.563Z,20.50
2023-02-06T22:00:10.394Z,20.50
2023-02-06T22:02:39.741Z,20.70
2023-02-06T22:05:09.226Z,20.70
2023-02-06T22:07:39.090Z,20.80
2023-02-06T22:10:09.649Z,20.90
2023-02-06T22:12:39.097Z,21.00
2023-02-06T22:15:09.820Z,21.20
2023-02-06T22:17:39.176Z,21.30
2023-02-06T22:20:09.086Z,21.40
2023-02-06T22:22:40.256Z,21.50
2023-02-06T22:25:11.664Z,21.50
2023-02-06T22:27:41.455Z,21.60
2023-02-06T22:30:11.182Z,21.60
2023-02-06T22:32:41.174Z,21.70
2023-02-06T22:35:10.954Z,21.70
2023-02-06T22:37:40.294Z,21.80
2023-02-06T22:40:11.032Z,21.80
2023-02-06T22:42:40.413Z,21.90
2023-02-06T22:45:11.174Z,21.90
2023-02-06T22:47:40.912Z,21.90
2023-02-06T22:50:10.430Z,22.10
2023-02-06T22:52:57.986Z,22.30
2023-02-06T22:55:47.051Z,22.60
2023-02-06T22:58:16.391Z,22.70
2023-02-06T23:00:46.819Z,23.00
2023-02-06T23:03:16.195Z,23.20
2023-02-06T23:05:45.587Z,23.40
2023-02-06T23:08:14.941Z,23.50
2023-02-06T23:10:48.510Z,23.60
2023-02-06T23:13:18.272Z,23.60
2023-02-06T23:15:48.241Z,23.70
2023-02-06T23:18:18.384Z,23.60
2023-02-06T23:20:47.820Z,23.80
2023-02-06T23:23:17.155Z,24.00
2023-02-06T23:25:46.633Z,24.20
2023-02-06T23:28:16.118Z,24.20
2023-02-06T23:30:45.943Z,24.40
2023-02-06T23:33:15.764Z,24.50
2023-02-06T23:35:45.744Z,24.50
2023-02-06T23:38:16.149Z,24.70
2023-02-06T23:40:45.566Z,24.80
2023-02-06T23:43:14.969Z,24.60
2023-02-06T23:45:44.745Z,24.50
2023-02-06T23:48:14.155Z,24.40
2023-02-06T23:50:43.649Z,24.50
2023-02-06T23:53:12.996Z,24.80
2023-02-06T23:55:42.380Z,25.00
2023-02-06T23:58:12.115Z,25.20
